sensor_id;sensor_type;location;lat;lon;timestamp;pressure;altitude;pressure_sealevel;temperature;humidity
65276;BME280;51875;49.994;14.052;2023-02-04T00:01:15;98451.13;;;6.01;100.00
65276;BME280;51875;49.994;14.052;2023-02-04T00:02:30;98443.28;;;6.08;100.00
65276;BME280;51875;49.994;14.052;2023-02-04T00:03:46;98463.28;;;5.99;100.00
65276;BME280;51875;49.994;14.052;2023-02-04T00:05:02;98453.13;;;5.69;100.00
65276;BME280;51875;49.994;14.052;2023-02-04T00:06:17;98462.44;;;5.95;100.00
65276;BME280;51875;49.994;14.052;2023-02-04T00:07:33;98454.69;;;5.92;100.00
65276;BME280;51875;49.994;14.052;2023-02-04T00:08:49;98452.84;;;6.08;100.00
65276;BME280;51875;49.994;14.052;2023-02-04T00:10:05;98442.59;;;5.85;100.00
65276;BME280;51875;49.994;14.052;2023-02-04T00:11:21;98456.50;;;5.82;100.00
65276;BME280;51875;49.994;14.052;2023-02-04T00:12:37;98447.69;;;6.03;100.00
65276;BME280;51875;49.994;14.052;2023-02-04T00:13:52;98457.22;;;6.01;100.00
65276;BME280;51875;49.994;14.052;2023-02-04T00:15:08;98454.72;;;5.87;100.00
65276;BME280;51875;49.994;14.052;2023-02-04T00:16:25;98442.50;;;5.97;100.00
65276;BME280;51875;49.994;14.052;2023-02-04T00:17:40;98446.22;;;5.70;100.00
65276;BME280;51875;49.994;14.052;2023-02-04T00:18:56;98446.22;;;5.70;100.00
65276;BME280;51875;49.994;14.052;2023-02-04T00:20:11;98442.63;;;5.83;100.00
65276;BME280;51875;49.994;14.052;2023-02-04T00:21:27;98434.13;;;5.64;100.00
65276;BME280;51875;49.994;14.052;2023-02-04T00:22:43;98447.72;;;5.96;100.00
65276;BME280;51875;49.994;14.052;2023-02-04T00:23:58;98459.09;;;5.82;100.00
65276;BME280;51875;49.994;14.052;2023-02-04T00:25:14;98466.84;;;5.85;100.00
65276;BME280;51875;49.994;14.052;2023-02-04T00:26:30;98466.00;;;5.83;100.00
65276;BME280;51875;49.994;14.052;2023-02-04T00:27:45;98466.75;;;6.02;100.00
65276;BME280;51875;49.994;14.052;2023-02-04T00:29:01;98467.69;;;5.87;100.00
65276;BME280;51875;49.994;14.052;2023-02-04T00:30:16;98479.94;;;5.71;100.00
65276;BME280;51875;49.994;14.052;2023-02-04T00:31:32;98487.78;;;5.65;100.00
65276;BME280;51875;49.994;14.052;2023-02-04T00:32:48;98488.28;;;6.14;100.00
65276;BME280;51875;49.994;14.052;2023-02-04T00:34:05;98486.63;;;6.00;100.00
65276;BME280;51875;49.994;14.052;2023-02-04T00:35:22;98494.34;;;6.14;100.00
65276;BME280;51875;49.994;14.052;2023-02-04T00:36:38;98494.31;;;6.17;100.00
65276;BME280;51875;49.994;14.052;2023-02-04T00:37:53;98489.25;;;5.99;100.00
65276;BME280;51875;49.994;14.052;2023-02-04T00:39:09;98508.44;;;5.87;100.00
65276;BME280;51875;49.994;14.052;2023-02-04T00:40:24;98503.16;;;5.94;100.00
65276;BME280;51875;49.994;14.052;2023-02-04T00:41:40;98508.31;;;5.99;100.00
65276;BME280;51875;49.994;14.052;2023-02-04T00:42:56;98506.59;;;6.00;100.00
65276;BME280;51875;49.994;14.052;2023-02-04T00:44:11;98535.22;;;5.92;100.00
65276;BME280;51875;49.994;14.052;2023-02-04T00:45:28;98513.50;;;6.01;100.00
65276;BME280;51875;49.994;14.052;2023-02-04T00:46:43;98519.69;;;5.83;100.00
65276;BME280;51875;49.994;14.052;2023-02-04T00:47:59;98535.03;;;6.20;100.00
65276;BME280;51875;49.994;14.052;2023-02-04T00:49:15;98523.97;;;5.93;100.00
65276;BME280;51875;49.994;14.052;2023-02-04T00:50:30;98522.41;;;5.69;100.00
65276;BME280;51875;49.994;14.052;2023-02-04T00:51:46;98519.00;;;5.62;100.00
65276;BME280;51875;49.994;14.052;2023-02-04T00:53:02;98544.00;;;5.75;100.00
65276;BME280;51875;49.994;14.052;2023-02-04T00:54:19;98518.84;;;5.82;100.00
65276;BME280;51875;49.994;14.052;2023-02-04T00:55:34;98536.94;;;6.02;100.00
65276;BME280;51875;49.994;14.052;2023-02-04T00:56:50;98527.41;;;5.93;100.00
65276;BME280;51875;49.994;14.052;2023-02-04T00:58:05;98529.16;;;5.94;100.00
65276;BME280;51875;49.994;14.052;2023-02-04T00:59:21;98537.03;;;5.80;100.00
65276;BME280;51875;49.994;14.052;2023-02-04T01:00:37;98542.28;;;5.71;100.00
65276;BME280;51875;49.994;14.052;2023-02-04T01:01:52;98530.16;;;5.76;100.00
65276;BME280;51875;49.994;14.052;2023-02-04T01:03:08;98517.81;;;6.00;100.00
65276;BME280;51875;49.994;14.052;2023-02-04T01:04:24;98545.84;;;5.61;100.00
65276;BME280;51875;49.994;14.052;2023-02-04T01:05:40;98540.56;;;5.72;100.00
65276;BME280;51875;49.994;14.052;2023-02-04T01:06:56;98551.69;;;5.89;100.00
65276;BME280;51875;49.994;14.052;2023-02-04T01:08:11;98567.25;;;5.94;100.00
65276;BME280;51875;49.994;14.052;2023-02-04T01:09:27;98556.91;;;5.86;100.00
65276;BME280;51875;49.994;14.052;2023-02-04T01:10:42;98550.88;;;5.83;100.00
65276;BME280;51875;49.994;14.052;2023-02-04T01:11:58;98555.41;;;5.54;100.00
65276;BME280;51875;49.994;14.052;2023-02-04T01:13:14;98563.09;;;5.68;100.00
65276;BME280;51875;49.994;14.052;2023-02-04T01:14:29;98547.41;;;5.84;100.00
65276;BME280;51875;49.994;14.052;2023-02-04T01:15:45;98593.41;;;5.66;100.00
65276;BME280;51875;49.994;14.052;2023-02-04T01:17:01;98584.66;;;5.84;100.00
65276;BME280;51875;49.994;14.052;2023-02-04T01:18:17;98578.50;;;5.96;100.00
65276;BME280;51875;49.994;14.052;2023-02-04T01:19:32;98574.22;;;5.90;100.00
65276;BME280;51875;49.994;14.052;2023-02-04T01:20:48;98595.09;;;5.76;100.00
65276;BME280;51875;49.994;14.052;2023-02-04T01:22:04;98572.53;;;5.82;100.00
65276;BME280;51875;49.994;14.052;2023-02-04T01:23:19;98557.78;;;5.90;100.00
65276;BME280;51875;49.994;14.052;2023-02-04T01:24:35;98576.78;;;5.93;100.00
65276;BME280;51875;49.994;14.052;2023-02-04T01:25:50;98580.38;;;5.75;100.00
65276;BME280;51875;49.994;14.052;2023-02-04T01:27:06;98566.38;;;6.01;100.00
65276;BME280;51875;49.994;14.052;2023-02-04T01:28:22;98582.03;;;5.86;100.00
65276;BME280;51875;49.994;14.052;2023-02-04T01:29:37;98593.31;;;5.86;100.00
65276;BME280;51875;49.994;14.052;2023-02-04T01:30:53;98575.19;;;5.75;100.00
65276;BME280;51875;49.994;14.052;2023-02-04T01:32:09;98579.38;;;5.95;100.00
65276;BME280;51875;49.994;14.052;2023-02-04T01:33:24;98607.28;;;5.65;100.00
65276;BME280;51875;49.994;14.052;2023-02-04T01:34:40;98599.44;;;5.74;100.00
65276;BME280;51875;49.994;14.052;2023-02-04T01:35:56;98605.63;;;5.51;100.00
65276;BME280;51875;49.994;14.052;2023-02-04T01:37:11;98626.53;;;5.20;100.00
65276;BME280;51875;49.994;14.052;2023-02-04T01:38:27;98624.66;;;5.55;100.00
65276;BME280;51875;49.994;14.052;2023-02-04T01:39:43;98636.75;;;5.56;100.00
65276;BME280;51875;49.994;14.052;2023-02-04T01:40:59;98665.38;;;5.37;100.00
65276;BME280;51875;49.994;14.052;2023-02-04T01:42:15;98642.88;;;5.47;100.00
65276;BME280;51875;49.994;14.052;2023-02-04T01:43:31;98657.56;;;5.50;100.00
65276;BME280;51875;49.994;14.052;2023-02-04T01:44:47;98691.41;;;5.23;100.00
65276;BME280;51875;49.994;14.052;2023-02-04T01:46:03;98689.69;;;5.13;100.00
65276;BME280;51875;49.994;14.052;2023-02-04T01:47:19;98715.66;;;4.70;100.00
65276;BME280;51875;49.994;14.052;2023-02-04T01:48:35;98705.25;;;4.23;100.00
65276;BME280;51875;49.994;14.052;2023-02-04T01:49:53;98729.38;;;4.03;100.00
65276;BME280;51875;49.994;14.052;2023-02-04T01:51:11;98718.13;;;3.93;100.00
65276;BME280;51875;49.994;14.052;2023-02-04T01:52:34;98751.72;;;3.73;100.00
65276;BME280;51875;49.994;14.052;2023-02-04T01:53:51;98738.88;;;4.01;100.00
65276;BME280;51875;49.994;14.052;2023-02-04T01:55:15;98753.56;;;3.99;100.00
65276;BME280;51875;49.994;14.052;2023-02-04T01:56:31;98749.22;;;3.96;100.00
65276;BME280;51875;49.994;14.052;2023-02-04T01:57:49;98771.69;;;3.93;100.00
65276;BME280;51875;49.994;14.052;2023-02-04T01:59:12;98742.34;;;4.03;100.00
65276;BME280;51875;49.994;14.052;2023-02-04T02:00:30;98737.97;;;3.87;100.00
65276;BME280;51875;49.994;14.052;2023-02-04T02:01:49;98751.88;;;4.07;100.00
65276;BME280;51875;49.994;14.052;2023-02-04T02:03:06;98765.56;;;3.77;100.00
65276;BME280;51875;49.994;14.052;2023-02-04T02:04:34;98768.06;;;3.63;100.00
65276;BME280;51875;49.994;14.052;2023-02-04T02:05:51;98776.81;;;3.84;100.00
65276;BME280;51875;49.994;14.052;2023-02-04T02:07:08;98787.06;;;3.63;100.00
65276;BME280;51875;49.994;14.052;2023-02-04T02:08:26;98794.81;;;3.62;100.00
65276;BME280;51875;49.994;14.052;2023-02-04T02:09:41;98791.41;;;3.69;100.00
65276;BME280;51875;49.994;14.052;2023-02-04T02:10:57;98803.56;;;3.79;100.00
65276;BME280;51875;49.994;14.052;2023-02-04T02:12:12;98809.44;;;3.53;100.00
65276;BME280;51875;49.994;14.052;2023-02-04T02:13:28;98804.28;;;3.60;100.00
65276;BME280;51875;49.994;14.052;2023-02-04T02:14:44;98806.84;;;3.52;100.00
65276;BME280;51875;49.994;14.052;2023-02-04T02:15:59;98796.56;;;3.67;100.00
65276;BME280;51875;49.994;14.052;2023-02-04T02:17:15;98797.44;;;3.68;100.00
65276;BME280;51875;49.994;14.052;2023-02-04T02:18:31;98820.59;;;3.46;100.00
65276;BME280;51875;49.994;14.052;2023-02-04T02:19:46;98800.72;;;3.41;100.00
65276;BME280;51875;49.994;14.052;2023-02-04T02:21:05;98807.75;;;3.57;100.00
65276;BME280;51875;49.994;14.052;2023-02-04T02:23:20;98815.38;;;3.42;100.00
65276;BME280;51875;49.994;14.052;2023-02-04T02:24:28;98821.44;;;3.42;100.00
65276;BME280;51875;49.994;14.052;2023-02-04T02:25:44;98853.34;;;3.38;100.00
65276;BME280;51875;49.994;14.052;2023-02-04T02:27:05;98841.38;;;3.49;100.00
65276;BME280;51875;49.994;14.052;2023-02-04T02:28:23;98837.19;;;3.73;100.00
65276;BME280;51875;49.994;14.052;2023-02-04T02:29:40;98857.09;;;3.80;100.00
65276;BME280;51875;49.994;14.052;2023-02-04T02:30:56;98848.34;;;3.67;100.00
65276;BME280;51875;49.994;14.052;2023-02-04T02:32:13;98852.56;;;3.53;100.00
65276;BME280;51875;49.994;14.052;2023-02-04T02:33:29;98851.72;;;3.51;100.00
65276;BME280;51875;49.994;14.052;2023-02-04T02:34:45;98861.16;;;3.46;100.00
65276;BME280;51875;49.994;14.052;2023-02-04T02:36:01;98856.06;;;3.57;100.00
65276;BME280;51875;49.994;14.052;2023-02-04T02:37:17;98857.75;;;3.51;100.00
65276;BME280;51875;49.994;14.052;2023-02-04T02:38:32;98883.63;;;3.50;100.00
65276;BME280;51875;49.994;14.052;2023-02-04T02:39:48;98878.34;;;3.36;100.00
65276;BME280;51875;49.994;14.052;2023-02-04T02:41:04;98865.47;;;3.48;100.00
65276;BME280;51875;49.994;14.052;2023-02-04T02:42:20;98886.16;;;3.42;100.00
65276;BME280;51875;49.994;14.052;2023-02-04T02:43:37;98867.19;;;3.46;100.00
65276;BME280;51875;49.994;14.052;2023-02-04T02:44:53;98866.22;;;3.30;100.00
65276;BME280;51875;49.994;14.052;2023-02-04T02:46:09;98868.88;;;3.38;100.00
65276;BME280;51875;49.994;14.052;2023-02-04T02:47:24;98870.25;;;2.99;100.00
65276;BME280;51875;49.994;14.052;2023-02-04T02:48:40;98868.78;;;3.29;100.00
65276;BME280;51875;49.994;14.052;2023-02-04T02:49:56;98876.53;;;3.27;100.00
65276;BME280;51875;49.994;14.052;2023-02-04T02:51:11;98885.09;;;3.17;100.00
65276;BME280;51875;49.994;14.052;2023-02-04T02:52:27;98895.38;;;3.10;100.00
65276;BME280;51875;49.994;14.052;2023-02-04T02:53:44;98893.63;;;3.09;100.00
65276;BME280;51875;49.994;14.052;2023-02-04T02:55:01;98892.78;;;3.09;100.00
65276;BME280;51875;49.994;14.052;2023-02-04T02:56:17;98911.41;;;2.77;100.00
65276;BME280;51875;49.994;14.052;2023-02-04T02:57:33;98909.03;;;2.95;100.00
65276;BME280;51875;49.994;14.052;2023-02-04T02:58:49;98896.97;;;2.97;100.00
65276;BME280;51875;49.994;14.052;2023-02-04T03:00:28;98912.50;;;2.99;100.00
65276;BME280;51875;49.994;14.052;2023-02-04T03:01:47;98905.50;;;2.87;100.00
65276;BME280;51875;49.994;14.052;2023-02-04T03:03:08;98917.66;;;2.94;100.00
65276;BME280;51875;49.994;14.052;2023-02-04T03:04:27;98916.66;;;2.85;100.00
65276;BME280;51875;49.994;14.052;2023-02-04T03:05:47;98917.56;;;2.87;100.00
65276;BME280;51875;49.994;14.052;2023-02-04T03:07:04;98928.75;;;2.87;100.00
65276;BME280;51875;49.994;14.052;2023-02-04T03:08:20;98924.44;;;2.86;100.00
65276;BME280;51875;49.994;14.052;2023-02-04T03:09:36;98938.81;;;2.62;100.00
65276;BME280;51875;49.994;14.052;2023-02-04T03:10:52;98943.16;;;2.65;100.00
65276;BME280;51875;49.994;14.052;2023-02-04T03:12:08;98945.13;;;2.86;100.00
65276;BME280;51875;49.994;14.052;2023-02-04T03:13:23;98956.03;;;2.60;100.00
65276;BME280;51875;49.994;14.052;2023-02-04T03:14:40;98955.31;;;2.72;100.00
65276;BME280;51875;49.994;14.052;2023-02-04T03:15:56;98965.09;;;2.96;100.00
65276;BME280;51875;49.994;14.052;2023-02-04T03:17:12;98958.06;;;2.86;100.00
65276;BME280;51875;49.994;14.052;2023-02-04T03:18:28;98964.19;;;2.94;100.00
65276;BME280;51875;49.994;14.052;2023-02-04T03:19:43;98963.31;;;2.94;100.00
65276;BME280;51875;49.994;14.052;2023-02-04T03:20:59;98973.63;;;2.91;100.00
65276;BME280;51875;49.994;14.052;2023-02-04T03:22:15;98985.50;;;2.73;100.00
65276;BME280;51875;49.994;14.052;2023-02-04T03:23:32;98985.47;;;2.72;100.00
65276;BME280;51875;49.994;14.052;2023-02-04T03:24:48;98976.75;;;2.63;100.00
65276;BME280;51875;49.994;14.052;2023-02-04T03:26:04;98995.94;;;2.81;100.00
65276;BME280;51875;49.994;14.052;2023-02-04T03:27:20;98998.31;;;2.64;100.00
65276;BME280;51875;49.994;14.052;2023-02-04T03:28:40;98990.63;;;2.70;100.00
65276;BME280;51875;49.994;14.052;2023-02-04T03:29:56;99011.41;;;2.78;100.00
65276;BME280;51875;49.994;14.052;2023-02-04T03:31:12;98995.00;;;2.74;100.00
65276;BME280;51875;49.994;14.052;2023-02-04T03:32:27;98997.75;;;2.88;100.00
65276;BME280;51875;49.994;14.052;2023-02-04T03:33:43;98994.44;;;3.02;100.00
65276;BME280;51875;49.994;14.052;2023-02-04T03:34:59;99011.75;;;3.07;100.00
65276;BME280;51875;49.994;14.052;2023-02-04T03:36:15;99009.03;;;2.93;100.00
65276;BME280;51875;49.994;14.052;2023-02-04T03:37:30;99023.72;;;2.97;100.00
65276;BME280;51875;49.994;14.052;2023-02-04T03:38:46;99028.88;;;2.96;100.00
65276;BME280;51875;49.994;14.052;2023-02-04T03:40:02;99041.56;;;2.77;100.00
65276;BME280;51875;49.994;14.052;2023-02-04T03:41:18;99030.41;;;2.81;100.00
65276;BME280;51875;49.994;14.052;2023-02-04T03:42:33;99070.94;;;2.81;100.00
65276;BME280;51875;49.994;14.052;2023-02-04T03:43:49;99070.97;;;2.84;100.00
65276;BME280;51875;49.994;14.052;2023-02-04T03:45:05;99081.41;;;2.92;100.00
65276;BME280;51875;49.994;14.052;2023-02-04T03:46:21;99082.94;;;2.77;100.00
65276;BME280;51875;49.994;14.052;2023-02-04T03:47:38;99087.16;;;2.71;100.00
65276;BME280;51875;49.994;14.052;2023-02-04T03:48:53;99076.00;;;2.73;100.00
65276;BME280;51875;49.994;14.052;2023-02-04T03:50:09;99095.09;;;2.85;100.00
65276;BME280;51875;49.994;14.052;2023-02-04T03:51:27;99104.59;;;2.84;100.00
65276;BME280;51875;49.994;14.052;2023-02-04T03:52:43;99103.78;;;2.88;100.00
65276;BME280;51875;49.994;14.052;2023-02-04T03:53:59;99111.75;;;3.04;100.00
65276;BME280;51875;49.994;14.052;2023-02-04T03:55:15;99104.69;;;2.92;100.00
65276;BME280;51875;49.994;14.052;2023-02-04T03:56:30;99122.84;;;2.95;100.00
65276;BME280;51875;49.994;14.052;2023-02-04T03:57:46;99112.31;;;2.82;100.00
65276;BME280;51875;49.994;14.052;2023-02-04T03:59:01;99123.66;;;2.92;100.00
65276;BME280;51875;49.994;14.052;2023-02-04T04:00:18;99122.06;;;3.01;100.00
65276;BME280;51875;49.994;14.052;2023-02-04T04:01:33;99147.44;;;2.66;100.00
65276;BME280;51875;49.994;14.052;2023-02-04T04:02:49;99143.44;;;2.87;100.00
65276;BME280;51875;49.994;14.052;2023-02-04T04:04:05;99159.78;;;2.86;100.00
65276;BME280;51875;49.994;14.052;2023-02-04T04:05:20;99155.44;;;2.83;100.00
65276;BME280;51875;49.994;14.052;2023-02-04T04:06:36;99158.72;;;2.72;100.00
65276;BME280;51875;49.994;14.052;2023-02-04T04:07:51;99165.78;;;2.83;100.00
65276;BME280;51875;49.994;14.052;2023-02-04T04:09:07;99161.44;;;2.82;100.00
65276;BME280;51875;49.994;14.052;2023-02-04T04:10:23;99168.47;;;2.90;100.00
65276;BME280;51875;49.994;14.052;2023-02-04T04:11:39;99178.19;;;3.06;100.00
65276;BME280;51875;49.994;14.052;2023-02-04T04:12:54;99173.16;;;3.16;100.00
65276;BME280;51875;49.994;14.052;2023-02-04T04:14:10;99181.88;;;3.22;100.00
65276;BME280;51875;49.994;14.052;2023-02-04T04:15:26;99179.97;;;3.10;100.00
65276;BME280;51875;49.994;14.052;2023-02-04T04:16:41;99187.06;;;2.67;100.00
65276;BME280;51875;49.994;14.052;2023-02-04T04:17:57;99193.13;;;2.69;100.00
65276;BME280;51875;49.994;14.052;2023-02-04T04:19:13;99175.81;;;2.62;100.00
65276;BME280;51875;49.994;14.052;2023-02-04T04:20:28;99186.88;;;2.53;100.00
65276;BME280;51875;49.994;14.052;2023-02-04T04:21:44;99203.56;;;2.74;100.00
65276;BME280;51875;49.994;14.052;2023-02-04T04:22:59;99203.47;;;2.67;100.00
65276;BME280;51875;49.994;14.052;2023-02-04T04:24:15;99203.47;;;2.69;100.00
65276;BME280;51875;49.994;14.052;2023-02-04T04:25:31;99210.44;;;2.72;100.00
65276;BME280;51875;49.994;14.052;2023-02-04T04:26:46;99209.03;;;2.94;100.00
65276;BME280;51875;49.994;14.052;2023-02-04T04:28:02;99213.97;;;2.78;100.00
65276;BME280;51875;49.994;14.052;2023-02-04T04:29:18;99225.00;;;2.66;100.00
65276;BME280;51875;49.994;14.052;2023-02-04T04:30:34;99220.66;;;2.64;100.00
65276;BME280;51875;49.994;14.052;2023-02-04T04:31:49;99221.66;;;2.74;100.00
65276;BME280;51875;49.994;14.052;2023-02-04T04:33:05;99220.16;;;2.87;100.00
65276;BME280;51875;49.994;14.052;2023-02-04T04:34:20;99229.66;;;2.89;100.00
65276;BME280;51875;49.994;14.052;2023-02-04T04:35:36;99226.66;;;2.63;100.00
65276;BME280;51875;49.994;14.052;2023-02-04T04:36:52;99232.81;;;2.71;100.00
65276;BME280;51875;49.994;14.052;2023-02-04T04:38:07;99221.88;;;2.86;100.00
65276;BME280;51875;49.994;14.052;2023-02-04T04:39:23;99242.06;;;2.55;100.00
65276;BME280;51875;49.994;14.052;2023-02-04T04:40:39;99225.88;;;2.18;100.00
65276;BME280;51875;49.994;14.052;2023-02-04T04:41:54;99242.91;;;2.54;100.00
65276;BME280;51875;49.994;14.052;2023-02-04T04:43:10;99242.09;;;2.58;100.00
65276;BME280;51875;49.994;14.052;2023-02-04T04:44:25;99237.22;;;2.77;100.00
65276;BME280;51875;49.994;14.052;2023-02-04T04:45:41;99244.09;;;2.75;100.00
65276;BME280;51875;49.994;14.052;2023-02-04T04:46:56;99235.84;;;2.47;100.00
65276;BME280;51875;49.994;14.052;2023-02-04T04:48:12;99249.69;;;2.49;100.00
65276;BME280;51875;49.994;14.052;2023-02-04T04:49:27;99245.31;;;2.45;100.00
65276;BME280;51875;49.994;14.052;2023-02-04T04:50:43;99251.66;;;2.16;100.00
65276;BME280;51875;49.994;14.052;2023-02-04T04:51:59;99261.25;;;2.70;100.00
65276;BME280;51875;49.994;14.052;2023-02-04T04:53:14;99272.66;;;2.82;100.00
65276;BME280;51875;49.994;14.052;2023-02-04T04:54:30;99268.34;;;2.81;100.00
65276;BME280;51875;49.994;14.052;2023-02-04T04:55:46;99278.75;;;2.86;100.00
65276;BME280;51875;49.994;14.052;2023-02-04T04:57:02;99288.72;;;2.63;100.00
65276;BME280;51875;49.994;14.052;2023-02-04T04:58:17;99294.69;;;2.60;100.00
65276;BME280;51875;49.994;14.052;2023-02-04T04:59:33;99303.44;;;2.21;100.00
65276;BME280;51875;49.994;14.052;2023-02-04T05:00:48;99303.81;;;2.41;100.00
65276;BME280;51875;49.994;14.052;2023-02-04T05:02:04;99302.81;;;2.34;100.00
65276;BME280;51875;49.994;14.052;2023-02-04T05:03:19;99315.19;;;2.06;100.00
65276;BME280;51875;49.994;14.052;2023-02-04T05:04:35;99314.34;;;2.06;100.00
65276;BME280;51875;49.994;14.052;2023-02-04T05:05:51;99316.94;;;1.66;100.00
65276;BME280;51875;49.994;14.052;2023-02-04T05:07:07;99321.69;;;1.87;100.00
65276;BME280;51875;49.994;14.052;2023-02-04T05:08:22;99331.97;;;1.46;100.00
65276;BME280;51875;49.994;14.052;2023-02-04T05:09:38;99332.97;;;1.51;100.00
65276;BME280;51875;49.994;14.052;2023-02-04T05:10:53;99341.59;;;1.91;100.00
65276;BME280;51875;49.994;14.052;2023-02-04T05:12:09;99336.91;;;2.15;100.00
65276;BME280;51875;49.994;14.052;2023-02-04T05:13:24;99350.47;;;2.04;100.00
65276;BME280;51875;49.994;14.052;2023-02-04T05:14:40;99361.03;;;1.75;100.00
65276;BME280;51875;49.994;14.052;2023-02-04T05:15:56;99361.31;;;1.88;100.00
65276;BME280;51875;49.994;14.052;2023-02-04T05:17:11;99356.44;;;2.02;100.00
65276;BME280;51875;49.994;14.052;2023-02-04T05:18:27;99361.75;;;2.09;100.00
65276;BME280;51875;49.994;14.052;2023-02-04T05:19:42;99366.56;;;1.92;100.00
65276;BME280;51875;49.994;14.052;2023-02-04T05:20:58;99381.28;;;1.57;100.00
65276;BME280;51875;49.994;14.052;2023-02-04T05:22:14;99378.13;;;1.70;100.00
65276;BME280;51875;49.994;14.052;2023-02-04T05:23:29;99387.56;;;1.68;100.00
65276;BME280;51875;49.994;14.052;2023-02-04T05:24:45;99388.75;;;1.82;100.00
65276;BME280;51875;49.994;14.052;2023-02-04T05:26:01;99389.66;;;1.86;100.00
65276;BME280;51875;49.994;14.052;2023-02-04T05:27:16;99387.06;;;1.85;100.00
65276;BME280;51875;49.994;14.052;2023-02-04T05:28:32;99394.41;;;2.06;100.00
65276;BME280;51875;49.994;14.052;2023-02-04T05:29:48;99390.56;;;1.87;100.00
65276;BME280;51875;49.994;14.052;2023-02-04T05:31:03;99400.16;;;1.92;100.00
65276;BME280;51875;49.994;14.052;2023-02-04T05:32:19;99400.91;;;1.50;100.00
65276;BME280;51875;49.994;14.052;2023-02-04T05:33:34;99411.34;;;1.93;100.00
65276;BME280;51875;49.994;14.052;2023-02-04T05:34:50;99412.47;;;2.04;100.00
65276;BME280;51875;49.994;14.052;2023-02-04T05:36:06;99424.59;;;2.08;100.00
65276;BME280;51875;49.994;14.052;2023-02-04T05:37:21;99418.41;;;2.02;100.00
65276;BME280;51875;49.994;14.052;2023-02-04T05:38:37;99426.59;;;2.20;100.00
65276;BME280;51875;49.994;14.052;2023-02-04T05:39:52;99426.53;;;2.17;100.00
65276;BME280;51875;49.994;14.052;2023-02-04T05:41:08;99432.47;;;1.76;100.00
65276;BME280;51875;49.994;14.052;2023-02-04T05:42:24;99439.06;;;2.00;100.00
65276;BME280;51875;49.994;14.052;2023-02-04T05:43:39;99445.09;;;2.01;100.00
65276;BME280;51875;49.994;14.052;2023-02-04T05:44:55;99458.72;;;1.95;100.00
65276;BME280;51875;49.994;14.052;2023-02-04T05:46:11;99444.97;;;1.94;100.00
65276;BME280;51875;49.994;14.052;2023-02-04T05:47:26;99458.81;;;1.98;100.00
65276;BME280;51875;49.994;14.052;2023-02-04T05:48:42;99459.84;;;2.05;100.00
65276;BME280;51875;49.994;14.052;2023-02-04T05:49:57;99461.59;;;2.07;100.00
65276;BME280;51875;49.994;14.052;2023-02-04T05:51:13;99468.59;;;2.11;100.00
65276;BME280;51875;49.994;14.052;2023-02-04T05:52:29;99476.47;;;2.18;100.00
65276;BME280;51875;49.994;14.052;2023-02-04T05:53:44;99473.31;;;1.93;100.00
65276;BME280;51875;49.994;14.052;2023-02-04T05:55:00;99477.03;;;2.04;100.00
65276;BME280;51875;49.994;14.052;2023-02-04T05:56:15;99485.31;;;1.91;100.00
65276;BME280;51875;49.994;14.052;2023-02-04T05:57:31;99486.41;;;1.99;100.00
65276;BME280;51875;49.994;14.052;2023-02-04T05:58:47;99491.13;;;2.19;100.00
65276;BME280;51875;49.994;14.052;2023-02-04T06:00:02;99493.47;;;2.08;100.00
65276;BME280;51875;49.994;14.052;2023-02-04T06:01:18;99493.19;;;1.95;100.00
65276;BME280;51875;49.994;14.052;2023-02-04T06:02:34;99507.91;;;1.98;100.00
65276;BME280;51875;49.994;14.052;2023-02-04T06:03:49;99505.50;;;2.06;100.00
65276;BME280;51875;49.994;14.052;2023-02-04T06:05:05;99503.47;;;1.92;100.00
65276;BME280;51875;49.994;14.052;2023-02-04T06:06:21;99509.16;;;1.80;100.00
65276;BME280;51875;49.994;14.052;2023-02-04T06:07:37;99513.50;;;1.81;100.00
65276;BME280;51875;49.994;14.052;2023-02-04T06:08:52;99508.97;;;2.08;100.00
65276;BME280;51875;49.994;14.052;2023-02-04T06:10:09;99512.09;;;2.31;100.00
65276;BME280;51875;49.994;14.052;2023-02-04T06:11:25;99522.69;;;2.05;100.00
65276;BME280;51875;49.994;14.052;2023-02-04T06:12:40;99522.25;;;1.87;100.00
65276;BME280;51875;49.994;14.052;2023-02-04T06:13:56;99526.72;;;1.94;100.00
65276;BME280;51875;49.994;14.052;2023-02-04T06:15:11;99523.41;;;1.98;100.00
65276;BME280;51875;49.994;14.052;2023-02-04T06:16:27;99527.25;;;1.80;100.00
65276;BME280;51875;49.994;14.052;2023-02-04T06:17:43;99532.97;;;2.02;100.00
65276;BME280;51875;49.994;14.052;2023-02-04T06:18:58;99530.25;;;1.96;100.00
65276;BME280;51875;49.994;14.052;2023-02-04T06:20:14;99528.50;;;2.33;100.00
65276;BME280;51875;49.994;14.052;2023-02-04T06:21:30;99535.06;;;2.19;100.00
65276;BME280;51875;49.994;14.052;2023-02-04T06:22:45;99537.66;;;2.19;100.00
65276;BME280;51875;49.994;14.052;2023-02-04T06:24:02;99541.22;;;2.24;100.00
65276;BME280;51875;49.994;14.052;2023-02-04T06:25:17;99539.22;;;2.12;100.00
65276;BME280;51875;49.994;14.052;2023-02-04T06:26:33;99543.22;;;2.37;100.00
65276;BME280;51875;49.994;14.052;2023-02-04T06:27:49;99550.91;;;2.33;100.00
65276;BME280;51875;49.994;14.052;2023-02-04T06:29:05;99557.34;;;2.50;100.00
65276;BME280;51875;49.994;14.052;2023-02-04T06:30:20;99557.78;;;2.32;100.00
65276;BME280;51875;49.994;14.052;2023-02-04T06:31:36;99569.91;;;2.35;100.00
65276;BME280;51875;49.994;14.052;2023-02-04T06:32:53;99568.34;;;2.43;100.00
65276;BME280;51875;49.994;14.052;2023-02-04T06:34:09;99578.91;;;2.52;100.00
65276;BME280;51875;49.994;14.052;2023-02-04T06:35:24;99587.22;;;2.39;100.00
65276;BME280;51875;49.994;14.052;2023-02-04T06:36:40;99586.09;;;2.28;100.00
65276;BME280;51875;49.994;14.052;2023-02-04T06:37:55;99584.44;;;2.31;100.00
65276;BME280;51875;49.994;14.052;2023-02-04T06:39:11;99597.84;;;2.15;100.00